Sponsor www.jackysshop.nl


METAR rapporten vliegvelden

   
EBAW - Antwerp
Gewijzigd: 26-05-2019 23:50
Light Showers, Regen, Bewolking  
Light Showers, Regen, Bewolking  
   Wind: ZW 18.5 km/h
Wind: ZW 18.5 km/h
Temperatuur: 14°C
Dauwpunt: 13°C
Vochtigheid: 94%
Barometer: 1011 hPa
Bewolking: Bewolking
Zicht: meer dan 10 km
Bewolking: Grotendeels bewolkt 500 ft,
Bewolking 700 ft
EBAW 262150Z AUTO 23010KT 9999 -SHRA BKN005/// OVC007/// 14/13 Q1011
EBLG - Li├Ęge
Gewijzigd: 26-05-2019 23:50
Grotendeels bewolkt  
Grotendeels bewolkt  
   Wind: ZW 22.2 km/h
Wind: ZW 22.2 km/h
Temperatuur: 14°C
Dauwpunt: 11°C
Vochtigheid: 82%
Barometer: 1012 hPa
Bewolking: Grotendeels bewolkt
Zicht: meer dan 10 km
Bewolking: Grotendeels bewolkt 3300 ft
EBLG 262150Z 22012KT 9999 BKN033 14/11 Q1012 NOSIG
EBCV - Mons/Bergen
Gewijzigd: 26-05-2019 23:25
Bewolking  
Bewolking  
   Wind: ZW 22.2 km/h
Wind: ZW 22.2 km/h
Temperatuur: 14°C
Dauwpunt: 13°C
Vochtigheid: 94%
Barometer: 1013 hPa
Bewolking: Bewolking
Zicht: meer dan 10 km
Bewolking: Bewolking 1000 ft
EBCV 262125Z AUTO 23012KT 9999 OVC010/// 14/13 Q1013 GRN
EHBK - Maastricht
Gewijzigd: 26-05-2019 23:55
Bewolking  
Bewolking  
   Wind: ZW 24.1 km/h
Wind: ZW 24.1 km/h
Temperatuur: 15°C
Dauwpunt: 11°C
Vochtigheid: 77%
Barometer: 1011 hPa
Bewolking: Bewolking
Zicht: meer dan 10 km
Bewolking: Bewolking 2500 ft
EHBK 262155Z AUTO 23013KT 9999 OVC025 15/11 Q1011
ELLX - Luxemburg
Gewijzigd: 26-05-2019 23:50
Grotendeels bewolkt  
Grotendeels bewolkt  
   Wind: Westen 16.7 km/h
Wind: Westen 16.7 km/h
Temperatuur: 16°C
Dauwpunt: 11°C
Vochtigheid: 72%
Barometer: 1013 hPa
Bewolking: Grotendeels bewolkt
Zicht: meer dan 10 km
Bewolking: Gedeeltelijk bewolkt 3400 ft,
Grotendeels bewolkt 5200 ft
ELLX 262150Z 27009KT 9999 SCT034 BKN052 16/11 Q1013 NOSIG
EBOS - Oostende
Gewijzigd: 26-05-2019 23:50
Grotendeels bewolkt  
Grotendeels bewolkt  
   Wind: WZW 20.4 km/h
Wind: WZW 20.4 km/h
Temperatuur: 13°C
Dauwpunt: 12°C
Vochtigheid: 94%
Barometer: 1011 hPa
Bewolking: Grotendeels bewolkt
Zicht: 9 km
Bewolking: Gedeeltelijk bewolkt 500 ft,
Grotendeels bewolkt 700 ft
EBOS 262150Z 24011KT 9000 SCT005 BKN007 13/12 Q1011 TEMPO 3000 DZRA BR BECMG 330 10KT

Script ontwikkeld door  Saratoga-weather.org Aangepast voor de template door  Weerstation Leuven